sensor_id;sensor_type;location;lat;lon;timestamp;P1;durP1;ratioP1;P2;durP2;ratioP2
16354;SDS011;8287;51.644;8.494;2023-11-19T00:02:22;0.28;;;0.20;;
16354;SDS011;8287;51.644;8.494;2023-11-19T00:04:48;0.25;;;0.17;;
16354;SDS011;8287;51.644;8.494;2023-11-19T00:07:15;0.10;;;0.10;;
16354;SDS011;8287;51.644;8.494;2023-11-19T00:09:42;0.30;;;0.05;;
16354;SDS011;8287;51.644;8.494;2023-11-19T00:12:08;4.85;;;0.32;;
16354;SDS011;8287;51.644;8.494;2023-11-19T00:14:35;0.10;;;0.10;;
16354;SDS011;8287;51.644;8.494;2023-11-19T00:17:02;0.32;;;0.20;;
16354;SDS011;8287;51.644;8.494;2023-11-19T00:19:30;0.17;;;0.10;;
16354;SDS011;8287;51.644;8.494;2023-11-19T00:21:57;0.00;;;0.00;;
16354;SDS011;8287;51.644;8.494;2023-11-19T00:24:27;0.00;;;0.00;;
16354;SDS011;8287;51.644;8.494;2023-11-19T00:26:54;0.10;;;0.10;;
16354;SDS011;8287;51.644;8.494;2023-11-19T00:29:21;0.32;;;0.10;;
16354;SDS011;8287;51.644;8.494;2023-11-19T00:31:48;0.10;;;0.10;;
16354;SDS011;8287;51.644;8.494;2023-11-19T00:34:14;0.15;;;0.15;;
16354;SDS011;8287;51.644;8.494;2023-11-19T00:36:42;0.10;;;0.10;;
16354;SDS011;8287;51.644;8.494;2023-11-19T00:39:10;0.30;;;0.10;;
16354;SDS011;8287;51.644;8.494;2023-11-19T00:41:36;0.00;;;0.00;;
16354;SDS011;8287;51.644;8.494;2023-11-19T00:44:03;0.28;;;0.10;;
16354;SDS011;8287;51.644;8.494;2023-11-19T00:46:30;1.98;;;0.10;;
16354;SDS011;8287;51.644;8.494;2023-11-19T00:48:57;0.43;;;0.20;;
16354;SDS011;8287;51.644;8.494;2023-11-19T00:51:26;0.00;;;0.00;;
16354;SDS011;8287;51.644;8.494;2023-11-19T00:53:54;0.47;;;0.20;;
16354;SDS011;8287;51.644;8.494;2023-11-19T00:56:20;0.25;;;0.20;;
16354;SDS011;8287;51.644;8.494;2023-11-19T00:58:47;0.10;;;0.10;;
16354;SDS011;8287;51.644;8.494;2023-11-19T01:01:13;0.00;;;0.00;;
16354;SDS011;8287;51.644;8.494;2023-11-19T01:03:40;0.40;;;0.20;;
16354;SDS011;8287;51.644;8.494;2023-11-19T01:06:07;0.10;;;0.10;;
16354;SDS011;8287;51.644;8.494;2023-11-19T01:08:34;0.22;;;0.15;;
16354;SDS011;8287;51.644;8.494;2023-11-19T01:11:02;0.13;;;0.10;;
16354;SDS011;8287;51.644;8.494;2023-11-19T01:13:29;0.15;;;0.10;;
16354;SDS011;8287;51.644;8.494;2023-11-19T01:15:56;1.98;;;0.17;;
16354;SDS011;8287;51.644;8.494;2023-11-19T01:18:22;0.10;;;0.10;;
16354;SDS011;8287;51.644;8.494;2023-11-19T01:20:49;0.17;;;0.17;;
16354;SDS011;8287;51.644;8.494;2023-11-19T01:23:15;0.10;;;0.10;;
16354;SDS011;8287;51.644;8.494;2023-11-19T01:25:42;0.00;;;0.00;;
16354;SDS011;8287;51.644;8.494;2023-11-19T01:28:10;0.00;;;0.00;;
16354;SDS011;8287;51.644;8.494;2023-11-19T01:30:36;0.55;;;0.55;;
16354;SDS011;8287;51.644;8.494;2023-11-19T01:33:03;1.83;;;0.10;;
16354;SDS011;8287;51.644;8.494;2023-11-19T01:35:30;0.10;;;0.10;;
16354;SDS011;8287;51.644;8.494;2023-11-19T01:37:56;0.10;;;0.10;;
16354;SDS011;8287;51.644;8.494;2023-11-19T01:40:23;0.10;;;0.10;;
16354;SDS011;8287;51.644;8.494;2023-11-19T01:42:49;0.40;;;0.20;;
16354;SDS011;8287;51.644;8.494;2023-11-19T01:45:21;0.10;;;0.10;;
16354;SDS011;8287;51.644;8.494;2023-11-19T01:47:52;0.15;;;0.15;;
16354;SDS011;8287;51.644;8.494;2023-11-19T01:50:19;0.73;;;0.20;;
16354;SDS011;8287;51.644;8.494;2023-11-19T01:52:47;0.30;;;0.10;;
16354;SDS011;8287;51.644;8.494;2023-11-19T01:55:14;0.45;;;0.20;;
16354;SDS011;8287;51.644;8.494;2023-11-19T01:57:41;0.60;;;0.30;;
16354;SDS011;8287;51.644;8.494;2023-11-19T02:00:08;0.20;;;0.20;;
16354;SDS011;8287;51.644;8.494;2023-11-19T02:02:38;0.32;;;0.20;;
16354;SDS011;8287;51.644;8.494;2023-11-19T02:05:05;0.30;;;0.30;;
16354;SDS011;8287;51.644;8.494;2023-11-19T02:07:32;1.67;;;0.40;;
16354;SDS011;8287;51.644;8.494;2023-11-19T02:09:59;1.10;;;0.30;;
16354;SDS011;8287;51.644;8.494;2023-11-19T02:12:27;0.30;;;0.20;;
16354;SDS011;8287;51.644;8.494;2023-11-19T02:14:54;0.43;;;0.32;;
16354;SDS011;8287;51.644;8.494;2023-11-19T02:17:26;0.50;;;0.50;;
16354;SDS011;8287;51.644;8.494;2023-11-19T02:19:55;0.30;;;0.30;;
16354;SDS011;8287;51.644;8.494;2023-11-19T02:22:21;0.50;;;0.50;;
16354;SDS011;8287;51.644;8.494;2023-11-19T02:24:48;1.55;;;0.45;;
16354;SDS011;8287;51.644;8.494;2023-11-19T02:27:20;3.13;;;0.60;;
16354;SDS011;8287;51.644;8.494;2023-11-19T02:29:57;0.50;;;0.50;;
16354;SDS011;8287;51.644;8.494;2023-11-19T02:32:27;1.23;;;0.50;;
16354;SDS011;8287;51.644;8.494;2023-11-19T02:34:53;0.60;;;0.50;;
16354;SDS011;8287;51.644;8.494;2023-11-19T02:37:20;0.40;;;0.40;;
16354;SDS011;8287;51.644;8.494;2023-11-19T02:39:47;0.40;;;0.40;;
16354;SDS011;8287;51.644;8.494;2023-11-19T02:42:13;0.95;;;0.95;;
16354;SDS011;8287;51.644;8.494;2023-11-19T02:44:43;0.50;;;0.50;;
16354;SDS011;8287;51.644;8.494;2023-11-19T02:47:11;1.00;;;0.55;;
16354;SDS011;8287;51.644;8.494;2023-11-19T02:49:38;0.80;;;0.80;;
16354;SDS011;8287;51.644;8.494;2023-11-19T02:52:05;0.57;;;0.57;;
16354;SDS011;8287;51.644;8.494;2023-11-19T02:54:35;0.60;;;0.60;;
16354;SDS011;8287;51.644;8.494;2023-11-19T02:57:02;0.40;;;0.40;;
16354;SDS011;8287;51.644;8.494;2023-11-19T02:59:29;0.73;;;0.60;;
16354;SDS011;8287;51.644;8.494;2023-11-19T03:02:04;0.50;;;0.50;;
16354;SDS011;8287;51.644;8.494;2023-11-19T03:04:33;0.65;;;0.65;;
16354;SDS011;8287;51.644;8.494;2023-11-19T03:06:59;0.55;;;0.55;;
16354;SDS011;8287;51.644;8.494;2023-11-19T03:09:27;0.40;;;0.40;;
16354;SDS011;8287;51.644;8.494;2023-11-19T03:11:54;0.30;;;0.30;;
16354;SDS011;8287;51.644;8.494;2023-11-19T03:14:21;2.28;;;0.70;;
16354;SDS011;8287;51.644;8.494;2023-11-19T03:16:48;0.40;;;0.40;;
16354;SDS011;8287;51.644;8.494;2023-11-19T03:19:14;1.92;;;0.55;;
16354;SDS011;8287;51.644;8.494;2023-11-19T03:21:42;1.00;;;0.60;;
16354;SDS011;8287;51.644;8.494;2023-11-19T03:24:10;1.05;;;0.60;;
16354;SDS011;8287;51.644;8.494;2023-11-19T03:26:36;1.02;;;0.47;;
16354;SDS011;8287;51.644;8.494;2023-11-19T03:29:03;2.97;;;0.75;;
16354;SDS011;8287;51.644;8.494;2023-11-19T03:31:30;0.47;;;0.47;;
16354;SDS011;8287;51.644;8.494;2023-11-19T03:33:56;1.33;;;0.63;;
16354;SDS011;8287;51.644;8.494;2023-11-19T03:36:23;1.88;;;0.70;;
16354;SDS011;8287;51.644;8.494;2023-11-19T03:38:51;3.72;;;0.88;;
16354;SDS011;8287;51.644;8.494;2023-11-19T03:41:17;1.48;;;0.75;;
16354;SDS011;8287;51.644;8.494;2023-11-19T03:43:44;4.82;;;0.95;;
16354;SDS011;8287;51.644;8.494;2023-11-19T03:46:17;2.65;;;0.70;;
16354;SDS011;8287;51.644;8.494;2023-11-19T03:48:44;3.10;;;0.60;;
16354;SDS011;8287;51.644;8.494;2023-11-19T03:51:12;1.17;;;0.85;;
16354;SDS011;8287;51.644;8.494;2023-11-19T03:53:40;5.32;;;1.17;;
16354;SDS011;8287;51.644;8.494;2023-11-19T03:56:09;2.75;;;1.08;;
16354;SDS011;8287;51.644;8.494;2023-11-19T03:58:36;1.58;;;0.77;;
16354;SDS011;8287;51.644;8.494;2023-11-19T04:01:03;0.50;;;0.50;;
16354;SDS011;8287;51.644;8.494;2023-11-19T04:03:30;4.93;;;0.98;;
16354;SDS011;8287;51.644;8.494;2023-11-19T04:05:56;1.60;;;0.60;;
16354;SDS011;8287;51.644;8.494;2023-11-19T04:08:24;3.67;;;0.70;;
16354;SDS011;8287;51.644;8.494;2023-11-19T04:10:50;2.08;;;0.65;;
16354;SDS011;8287;51.644;8.494;2023-11-19T04:13:18;1.02;;;0.93;;
16354;SDS011;8287;51.644;8.494;2023-11-19T04:15:45;3.25;;;0.63;;
16354;SDS011;8287;51.644;8.494;2023-11-19T04:18:12;6.03;;;1.20;;
16354;SDS011;8287;51.644;8.494;2023-11-19T04:20:38;0.80;;;0.75;;
16354;SDS011;8287;51.644;8.494;2023-11-19T04:23:07;3.63;;;0.73;;
16354;SDS011;8287;51.644;8.494;2023-11-19T04:25:34;1.63;;;0.77;;
16354;SDS011;8287;51.644;8.494;2023-11-19T04:28:01;6.53;;;0.93;;
16354;SDS011;8287;51.644;8.494;2023-11-19T04:30:29;5.30;;;1.38;;
16354;SDS011;8287;51.644;8.494;2023-11-19T04:32:56;6.78;;;1.27;;
16354;SDS011;8287;51.644;8.494;2023-11-19T04:35:23;2.70;;;0.95;;
16354;SDS011;8287;51.644;8.494;2023-11-19T04:37:51;4.40;;;1.27;;
16354;SDS011;8287;51.644;8.494;2023-11-19T04:40:18;4.28;;;1.20;;
16354;SDS011;8287;51.644;8.494;2023-11-19T04:42:47;4.78;;;1.45;;
16354;SDS011;8287;51.644;8.494;2023-11-19T04:45:14;5.70;;;1.08;;
16354;SDS011;8287;51.644;8.494;2023-11-19T04:47:42;5.88;;;1.45;;
16354;SDS011;8287;51.644;8.494;2023-11-19T04:50:09;4.13;;;1.52;;
16354;SDS011;8287;51.644;8.494;2023-11-19T04:52:37;4.93;;;1.77;;
16354;SDS011;8287;51.644;8.494;2023-11-19T04:55:05;6.30;;;1.35;;
16354;SDS011;8287;51.644;8.494;2023-11-19T04:57:32;3.25;;;1.35;;
16354;SDS011;8287;51.644;8.494;2023-11-19T04:59:59;5.32;;;1.67;;
16354;SDS011;8287;51.644;8.494;2023-11-19T05:02:26;3.70;;;1.13;;
16354;SDS011;8287;51.644;8.494;2023-11-19T05:04:54;6.32;;;1.30;;
16354;SDS011;8287;51.644;8.494;2023-11-19T05:07:20;10.75;;;2.30;;
16354;SDS011;8287;51.644;8.494;2023-11-19T05:09:47;10.77;;;1.52;;
16354;SDS011;8287;51.644;8.494;2023-11-19T05:12:14;8.75;;;2.42;;
16354;SDS011;8287;51.644;8.494;2023-11-19T05:14:41;4.43;;;1.60;;
16354;SDS011;8287;51.644;8.494;2023-11-19T05:17:13;10.30;;;3.15;;
16354;SDS011;8287;51.644;8.494;2023-11-19T05:19:40;4.45;;;1.77;;
16354;SDS011;8287;51.644;8.494;2023-11-19T05:22:08;6.95;;;1.50;;
16354;SDS011;8287;51.644;8.494;2023-11-19T05:24:34;11.70;;;1.83;;
16354;SDS011;8287;51.644;8.494;2023-11-19T05:27:01;9.13;;;1.73;;
16354;SDS011;8287;51.644;8.494;2023-11-19T05:29:27;9.07;;;2.25;;
16354;SDS011;8287;51.644;8.494;2023-11-19T05:31:54;9.95;;;2.17;;
16354;SDS011;8287;51.644;8.494;2023-11-19T05:34:21;7.10;;;2.05;;
16354;SDS011;8287;51.644;8.494;2023-11-19T05:36:48;8.70;;;1.90;;
16354;SDS011;8287;51.644;8.494;2023-11-19T05:39:16;7.88;;;1.55;;
16354;SDS011;8287;51.644;8.494;2023-11-19T05:41:43;10.50;;;2.38;;
16354;SDS011;8287;51.644;8.494;2023-11-19T05:44:10;12.02;;;2.45;;
16354;SDS011;8287;51.644;8.494;2023-11-19T05:46:36;7.85;;;1.67;;
16354;SDS011;8287;51.644;8.494;2023-11-19T05:49:07;5.85;;;1.83;;
16354;SDS011;8287;51.644;8.494;2023-11-19T05:51:36;10.75;;;1.95;;
16354;SDS011;8287;51.644;8.494;2023-11-19T05:56:33;10.30;;;2.75;;
16354;SDS011;8287;51.644;8.494;2023-11-19T05:59:00;4.45;;;1.73;;
16354;SDS011;8287;51.644;8.494;2023-11-19T06:01:28;14.25;;;2.63;;
16354;SDS011;8287;51.644;8.494;2023-11-19T06:03:55;7.97;;;2.30;;
16354;SDS011;8287;51.644;8.494;2023-11-19T06:06:21;9.93;;;2.55;;
16354;SDS011;8287;51.644;8.494;2023-11-19T06:08:49;8.73;;;1.98;;
16354;SDS011;8287;51.644;8.494;2023-11-19T06:11:15;12.02;;;3.15;;
16354;SDS011;8287;51.644;8.494;2023-11-19T06:13:47;7.97;;;2.03;;
16354;SDS011;8287;51.644;8.494;2023-11-19T06:16:15;11.25;;;2.30;;
16354;SDS011;8287;51.644;8.494;2023-11-19T06:18:42;7.38;;;2.03;;
16354;SDS011;8287;51.644;8.494;2023-11-19T06:21:09;9.77;;;1.92;;
16354;SDS011;8287;51.644;8.494;2023-11-19T06:23:36;11.30;;;2.83;;
16354;SDS011;8287;51.644;8.494;2023-11-19T06:26:03;14.88;;;3.08;;
16354;SDS011;8287;51.644;8.494;2023-11-19T06:28:31;14.50;;;2.47;;
16354;SDS011;8287;51.644;8.494;2023-11-19T06:30:59;13.23;;;2.40;;
16354;SDS011;8287;51.644;8.494;2023-11-19T06:33:26;9.52;;;3.03;;
16354;SDS011;8287;51.644;8.494;2023-11-19T06:35:53;15.20;;;3.30;;
16354;SDS011;8287;51.644;8.494;2023-11-19T06:38:20;10.88;;;2.85;;
16354;SDS011;8287;51.644;8.494;2023-11-19T06:40:47;14.30;;;3.42;;
16354;SDS011;8287;51.644;8.494;2023-11-19T06:43:13;15.90;;;2.55;;
16354;SDS011;8287;51.644;8.494;2023-11-19T06:45:40;11.20;;;2.60;;
16354;SDS011;8287;51.644;8.494;2023-11-19T06:48:08;13.38;;;3.55;;
16354;SDS011;8287;51.644;8.494;2023-11-19T06:50:35;13.23;;;2.25;;
16354;SDS011;8287;51.644;8.494;2023-11-19T06:53:02;15.40;;;3.05;;
16354;SDS011;8287;51.644;8.494;2023-11-19T06:55:30;12.68;;;2.65;;
16354;SDS011;8287;51.644;8.494;2023-11-19T06:57:57;11.88;;;2.55;;
16354;SDS011;8287;51.644;8.494;2023-11-19T07:00:27;14.65;;;2.97;;
16354;SDS011;8287;51.644;8.494;2023-11-19T07:02:54;12.32;;;3.08;;
16354;SDS011;8287;51.644;8.494;2023-11-19T07:05:22;21.55;;;3.92;;
16354;SDS011;8287;51.644;8.494;2023-11-19T07:07:49;13.35;;;3.05;;
16354;SDS011;8287;51.644;8.494;2023-11-19T07:10:16;12.85;;;3.05;;
16354;SDS011;8287;51.644;8.494;2023-11-19T07:12:42;10.82;;;3.28;;
16354;SDS011;8287;51.644;8.494;2023-11-19T07:15:10;8.35;;;2.47;;
16354;SDS011;8287;51.644;8.494;2023-11-19T07:17:38;14.45;;;3.28;;
16354;SDS011;8287;51.644;8.494;2023-11-19T07:20:06;10.45;;;3.30;;
16354;SDS011;8287;51.644;8.494;2023-11-19T07:22:34;20.13;;;4.25;;
16354;SDS011;8287;51.644;8.494;2023-11-19T07:25:03;16.98;;;3.55;;
16354;SDS011;8287;51.644;8.494;2023-11-19T07:27:30;11.57;;;3.42;;
16354;SDS011;8287;51.644;8.494;2023-11-19T07:29:57;19.25;;;3.72;;
16354;SDS011;8287;51.644;8.494;2023-11-19T07:32:24;17.38;;;3.28;;
16354;SDS011;8287;51.644;8.494;2023-11-19T07:34:50;21.25;;;3.92;;
16354;SDS011;8287;51.644;8.494;2023-11-19T07:37:17;23.48;;;3.60;;
16354;SDS011;8287;51.644;8.494;2023-11-19T07:39:45;22.80;;;4.53;;
16354;SDS011;8287;51.644;8.494;2023-11-19T07:42:12;17.50;;;3.10;;
16354;SDS011;8287;51.644;8.494;2023-11-19T07:44:38;14.02;;;4.55;;
16354;SDS011;8287;51.644;8.494;2023-11-19T07:47:05;19.65;;;4.00;;
16354;SDS011;8287;51.644;8.494;2023-11-19T07:49:31;13.23;;;3.13;;
16354;SDS011;8287;51.644;8.494;2023-11-19T07:51:58;18.02;;;3.22;;
16354;SDS011;8287;51.644;8.494;2023-11-19T07:54:25;17.23;;;3.83;;
16354;SDS011;8287;51.644;8.494;2023-11-19T07:56:53;11.13;;;3.20;;
16354;SDS011;8287;51.644;8.494;2023-11-19T07:59:20;14.55;;;3.95;;
16354;SDS011;8287;51.644;8.494;2023-11-19T08:01:47;16.48;;;3.45;;
16354;SDS011;8287;51.644;8.494;2023-11-19T08:04:13;20.63;;;3.38;;
16354;SDS011;8287;51.644;8.494;2023-11-19T08:06:40;17.63;;;4.00;;
16354;SDS011;8287;51.644;8.494;2023-11-19T08:09:07;18.83;;;3.67;;
16354;SDS011;8287;51.644;8.494;2023-11-19T08:11:38;13.82;;;3.72;;
16354;SDS011;8287;51.644;8.494;2023-11-19T08:14:06;19.98;;;3.13;;
16354;SDS011;8287;51.644;8.494;2023-11-19T08:16:33;11.43;;;3.10;;
16354;SDS011;8287;51.644;8.494;2023-11-19T08:19:01;19.48;;;3.38;;
16354;SDS011;8287;51.644;8.494;2023-11-19T08:21:29;15.13;;;2.75;;
16354;SDS011;8287;51.644;8.494;2023-11-19T08:23:55;18.55;;;2.92;;
16354;SDS011;8287;51.644;8.494;2023-11-19T08:26:22;17.30;;;3.15;;
16354;SDS011;8287;51.644;8.494;2023-11-19T08:28:49;17.63;;;3.55;;
16354;SDS011;8287;51.644;8.494;2023-11-19T08:31:18;16.80;;;3.95;;
16354;SDS011;8287;51.644;8.494;2023-11-19T08:33:45;21.60;;;4.70;;
16354;SDS011;8287;51.644;8.494;2023-11-19T08:36:15;20.23;;;3.58;;
16354;SDS011;8287;51.644;8.494;2023-11-19T08:38:42;12.90;;;3.78;;
16354;SDS011;8287;51.644;8.494;2023-11-19T08:41:08;18.30;;;3.75;;
16354;SDS011;8287;51.644;8.494;2023-11-19T08:43:35;16.00;;;3.28;;
16354;SDS011;8287;51.644;8.494;2023-11-19T08:46:02;20.50;;;3.90;;
16354;SDS011;8287;51.644;8.494;2023-11-19T08:48:30;17.50;;;3.85;;
16354;SDS011;8287;51.644;8.494;2023-11-19T08:50:57;17.30;;;3.50;;
16354;SDS011;8287;51.644;8.494;2023-11-19T08:53:24;13.80;;;2.97;;
16354;SDS011;8287;51.644;8.494;2023-11-19T08:55:50;11.88;;;3.42;;
16354;SDS011;8287;51.644;8.494;2023-11-19T08:58:17;10.68;;;3.00;;
16354;SDS011;8287;51.644;8.494;2023-11-19T09:00:44;14.70;;;3.50;;
16354;SDS011;8287;51.644;8.494;2023-11-19T09:03:11;10.98;;;2.92;;
16354;SDS011;8287;51.644;8.494;2023-11-19T09:05:39;13.07;;;3.25;;
16354;SDS011;8287;51.644;8.494;2023-11-19T09:08:06;19.25;;;3.00;;
16354;SDS011;8287;51.644;8.494;2023-11-19T09:10:33;16.25;;;3.72;;
16354;SDS011;8287;51.644;8.494;2023-11-19T09:13:00;18.08;;;3.42;;
16354;SDS011;8287;51.644;8.494;2023-11-19T09:15:27;22.67;;;8.20;;
16354;SDS011;8287;51.644;8.494;2023-11-19T09:17:54;15.18;;;4.22;;
16354;SDS011;8287;51.644;8.494;2023-11-19T09:20:21;17.35;;;7.05;;
16354;SDS011;8287;51.644;8.494;2023-11-19T09:22:49;20.80;;;5.65;;
16354;SDS011;8287;51.644;8.494;2023-11-19T09:25:16;16.13;;;4.30;;
16354;SDS011;8287;51.644;8.494;2023-11-19T09:27:42;19.92;;;6.05;;
16354;SDS011;8287;51.644;8.494;2023-11-19T09:30:09;12.90;;;3.47;;
16354;SDS011;8287;51.644;8.494;2023-11-19T09:32:37;17.23;;;3.22;;
16354;SDS011;8287;51.644;8.494;2023-11-19T09:35:04;16.63;;;4.18;;
16354;SDS011;8287;51.644;8.494;2023-11-19T09:37:32;17.00;;;5.50;;
16354;SDS011;8287;51.644;8.494;2023-11-19T09:40:00;16.17;;;3.67;;
16354;SDS011;8287;51.644;8.494;2023-11-19T09:42:26;17.00;;;3.85;;
16354;SDS011;8287;51.644;8.494;2023-11-19T09:44:53;11.02;;;3.45;;
16354;SDS011;8287;51.644;8.494;2023-11-19T09:47:22;15.00;;;3.72;;
16354;SDS011;8287;51.644;8.494;2023-11-19T09:49:52;16.05;;;3.78;;
16354;SDS011;8287;51.644;8.494;2023-11-19T09:52:19;16.25;;;3.30;;
16354;SDS011;8287;51.644;8.494;2023-11-19T09:54:46;17.92;;;4.85;;
16354;SDS011;8287;51.644;8.494;2023-11-19T09:57:14;17.48;;;3.70;;
16354;SDS011;8287;51.644;8.494;2023-11-19T09:59:43;17.35;;;4.18;;
16354;SDS011;8287;51.644;8.494;2023-11-19T10:02:11;18.98;;;3.30;;
16354;SDS011;8287;51.644;8.494;2023-11-19T10:04:38;20.50;;;3.72;;
16354;SDS011;8287;51.644;8.494;2023-11-19T10:07:08;16.17;;;3.80;;
16354;SDS011;8287;51.644;8.494;2023-11-19T10:09:36;17.70;;;4.07;;
16354;SDS011;8287;51.644;8.494;2023-11-19T10:12:03;24.98;;;3.42;;
16354;SDS011;8287;51.644;8.494;2023-11-19T10:14:31;18.67;;;3.83;;
16354;SDS011;8287;51.644;8.494;2023-11-19T10:17:00;22.42;;;3.83;;
16354;SDS011;8287;51.644;8.494;2023-11-19T10:19:29;17.40;;;4.40;;
16354;SDS011;8287;51.644;8.494;2023-11-19T10:21:55;26.40;;;4.72;;
16354;SDS011;8287;51.644;8.494;2023-11-19T10:24:31;14.00;;;3.70;;
16354;SDS011;8287;51.644;8.494;2023-11-19T10:26:58;13.07;;;4.22;;
16354;SDS011;8287;51.644;8.494;2023-11-19T10:29:25;11.93;;;3.50;;
16354;SDS011;8287;51.644;8.494;2023-11-19T10:31:58;16.83;;;3.20;;
16354;SDS011;8287;51.644;8.494;2023-11-19T10:34:25;17.88;;;4.07;;
16354;SDS011;8287;51.644;8.494;2023-11-19T10:36:52;16.98;;;4.00;;
16354;SDS011;8287;51.644;8.494;2023-11-19T10:39:19;11.52;;;3.30;;
16354;SDS011;8287;51.644;8.494;2023-11-19T10:41:48;17.52;;;3.80;;
16354;SDS011;8287;51.644;8.494;2023-11-19T10:44:30;13.30;;;3.60;;
16354;SDS011;8287;51.644;8.494;2023-11-19T10:47:00;11.80;;;2.78;;
16354;SDS011;8287;51.644;8.494;2023-11-19T10:49:26;16.67;;;3.05;;
16354;SDS011;8287;51.644;8.494;2023-11-19T10:51:53;17.00;;;4.05;;
16354;SDS011;8287;51.644;8.494;2023-11-19T10:54:22;19.63;;;3.65;;
16354;SDS011;8287;51.644;8.494;2023-11-19T10:56:50;19.90;;;4.55;;
16354;SDS011;8287;51.644;8.494;2023-11-19T10:59:21;16.58;;;3.47;;
16354;SDS011;8287;51.644;8.494;2023-11-19T11:01:48;17.17;;;3.42;;
16354;SDS011;8287;51.644;8.494;2023-11-19T11:04:22;12.23;;;3.00;;
16354;SDS011;8287;51.644;8.494;2023-11-19T11:06:50;14.70;;;2.75;;
16354;SDS011;8287;51.644;8.494;2023-11-19T11:09:18;15.82;;;3.75;;
16354;SDS011;8287;51.644;8.494;2023-11-19T11:11:44;12.82;;;2.80;;
16354;SDS011;8287;51.644;8.494;2023-11-19T11:14:13;16.15;;;3.38;;
16354;SDS011;8287;51.644;8.494;2023-11-19T11:16:40;17.15;;;3.40;;
16354;SDS011;8287;51.644;8.494;2023-11-19T11:19:09;15.20;;;3.75;;
16354;SDS011;8287;51.644;8.494;2023-11-19T11:21:37;15.88;;;3.92;;
16354;SDS011;8287;51.644;8.494;2023-11-19T11:24:10;18.55;;;2.90;;
16354;SDS011;8287;51.644;8.494;2023-11-19T11:26:58;14.93;;;3.10;;
16354;SDS011;8287;51.644;8.494;2023-11-19T11:29:46;14.73;;;3.40;;
16354;SDS011;8287;51.644;8.494;2023-11-19T11:32:30;14.63;;;3.78;;
16354;SDS011;8287;51.644;8.494;2023-11-19T11:35:19;18.38;;;4.22;;
16354;SDS011;8287;51.644;8.494;2023-11-19T11:38:00;23.23;;;5.38;;
16354;SDS011;8287;51.644;8.494;2023-11-19T11:40:29;16.77;;;4.60;;
16354;SDS011;8287;51.644;8.494;2023-11-19T11:42:56;18.80;;;3.88;;
16354;SDS011;8287;51.644;8.494;2023-11-19T11:45:34;19.50;;;4.18;;
16354;SDS011;8287;51.644;8.494;2023-11-19T11:48:06;12.43;;;2.95;;
16354;SDS011;8287;51.644;8.494;2023-11-19T11:50:36;14.80;;;3.50;;
16354;SDS011;8287;51.644;8.494;2023-11-19T11:53:22;12.07;;;3.75;;
16354;SDS011;8287;51.644;8.494;2023-11-19T11:55:56;17.77;;;3.67;;
16354;SDS011;8287;51.644;8.494;2023-11-19T11:58:35;17.10;;;4.75;;
16354;SDS011;8287;51.644;8.494;2023-11-19T12:01:03;11.40;;;3.17;;
16354;SDS011;8287;51.644;8.494;2023-11-19T12:03:32;13.63;;;3.30;;
16354;SDS011;8287;51.644;8.494;2023-11-19T12:05:59;18.73;;;3.00;;
16354;SDS011;8287;51.644;8.494;2023-11-19T12:08:27;15.95;;;3.50;;
16354;SDS011;8287;51.644;8.494;2023-11-19T12:10:55;14.15;;;3.45;;
16354;SDS011;8287;51.644;8.494;2023-11-19T12:13:24;18.48;;;4.45;;
16354;SDS011;8287;51.644;8.494;2023-11-19T12:16:07;17.92;;;3.78;;
16354;SDS011;8287;51.644;8.494;2023-11-19T12:18:35;15.43;;;3.97;;
16354;SDS011;8287;51.644;8.494;2023-11-19T12:21:05;21.85;;;4.60;;
16354;SDS011;8287;51.644;8.494;2023-11-19T12:23:43;14.73;;;3.65;;
16354;SDS011;8287;51.644;8.494;2023-11-19T12:26:31;19.92;;;4.53;;
16354;SDS011;8287;51.644;8.494;2023-11-19T12:28:59;22.90;;;5.55;;
16354;SDS011;8287;51.644;8.494;2023-11-19T12:31:29;19.38;;;5.30;;
16354;SDS011;8287;51.644;8.494;2023-11-19T12:33:55;15.55;;;4.80;;
16354;SDS011;8287;51.644;8.494;2023-11-19T12:36:22;19.77;;;4.78;;
16354;SDS011;8287;51.644;8.494;2023-11-19T12:38:50;18.38;;;4.65;;
16354;SDS011;8287;51.644;8.494;2023-11-19T12:41:17;16.00;;;3.63;;
16354;SDS011;8287;51.644;8.494;2023-11-19T12:43:47;12.57;;;2.53;;
16354;SDS011;8287;51.644;8.494;2023-11-19T12:46:17;15.82;;;3.72;;
16354;SDS011;8287;51.644;8.494;2023-11-19T12:48:44;14.90;;;2.90;;
16354;SDS011;8287;51.644;8.494;2023-11-19T12:51:11;21.05;;;4.38;;
16354;SDS011;8287;51.644;8.494;2023-11-19T12:53:47;11.05;;;3.35;;
16354;SDS011;8287;51.644;8.494;2023-11-19T12:56:16;17.25;;;3.80;;
16354;SDS011;8287;51.644;8.494;2023-11-19T12:58:43;15.55;;;3.55;;
16354;SDS011;8287;51.644;8.494;2023-11-19T13:01:14;11.27;;;3.17;;
16354;SDS011;8287;51.644;8.494;2023-11-19T13:03:42;18.35;;;3.33;;
16354;SDS011;8287;51.644;8.494;2023-11-19T13:06:10;13.63;;;3.08;;
16354;SDS011;8287;51.644;8.494;2023-11-19T13:08:38;15.15;;;3.35;;
16354;SDS011;8287;51.644;8.494;2023-11-19T13:11:06;9.27;;;2.78;;
16354;SDS011;8287;51.644;8.494;2023-11-19T13:16:23;12.88;;;3.47;;
16354;SDS011;8287;51.644;8.494;2023-11-19T13:18:50;17.63;;;3.25;;
16354;SDS011;8287;51.644;8.494;2023-11-19T13:21:17;12.85;;;3.05;;
16354;SDS011;8287;51.644;8.494;2023-11-19T13:23:44;10.00;;;2.97;;
16354;SDS011;8287;51.644;8.494;2023-11-19T13:26:11;13.80;;;2.92;;
16354;SDS011;8287;51.644;8.494;2023-11-19T13:28:38;13.88;;;2.63;;
16354;SDS011;8287;51.644;8.494;2023-11-19T13:31:06;12.45;;;2.70;;
16354;SDS011;8287;51.644;8.494;2023-11-19T13:33:33;9.35;;;2.20;;
16354;SDS011;8287;51.644;8.494;2023-11-19T13:36:01;12.43;;;2.80;;
16354;SDS011;8287;51.644;8.494;2023-11-19T13:38:31;10.63;;;2.83;;
16354;SDS011;8287;51.644;8.494;2023-11-19T13:40:58;12.88;;;3.15;;
16354;SDS011;8287;51.644;8.494;2023-11-19T13:43:25;12.40;;;3.83;;
16354;SDS011;8287;51.644;8.494;2023-11-19T13:45:53;10.63;;;2.60;;
16354;SDS011;8287;51.644;8.494;2023-11-19T13:48:21;10.43;;;2.70;;
16354;SDS011;8287;51.644;8.494;2023-11-19T13:50:48;11.27;;;2.67;;
16354;SDS011;8287;51.644;8.494;2023-11-19T13:53:14;9.68;;;2.33;;
16354;SDS011;8287;51.644;8.494;2023-11-19T13:55:41;15.68;;;2.67;;
16354;SDS011;8287;51.644;8.494;2023-11-19T13:58:08;9.73;;;3.00;;
16354;SDS011;8287;51.644;8.494;2023-11-19T14:00:35;16.02;;;3.30;;
16354;SDS011;8287;51.644;8.494;2023-11-19T14:03:02;12.57;;;2.90;;
16354;SDS011;8287;51.644;8.494;2023-11-19T14:05:31;8.90;;;2.85;;
16354;SDS011;8287;51.644;8.494;2023-11-19T14:07:57;15.25;;;3.92;;
16354;SDS011;8287;51.644;8.494;2023-11-19T14:10:26;9.60;;;3.10;;
16354;SDS011;8287;51.644;8.494;2023-11-19T14:12:53;8.32;;;2.50;;
16354;SDS011;8287;51.644;8.494;2023-11-19T14:15:20;10.48;;;2.47;;
16354;SDS011;8287;51.644;8.494;2023-11-19T14:17:47;11.18;;;2.58;;
16354;SDS011;8287;51.644;8.494;2023-11-19T14:20:13;11.55;;;2.85;;
16354;SDS011;8287;51.644;8.494;2023-11-19T14:22:43;10.40;;;2.85;;
16354;SDS011;8287;51.644;8.494;2023-11-19T14:25:13;14.30;;;3.45;;
16354;SDS011;8287;51.644;8.494;2023-11-19T14:27:40;15.02;;;3.67;;
16354;SDS011;8287;51.644;8.494;2023-11-19T14:30:08;10.75;;;2.58;;
16354;SDS011;8287;51.644;8.494;2023-11-19T14:32:38;13.52;;;3.08;;
16354;SDS011;8287;51.644;8.494;2023-11-19T14:35:06;10.48;;;3.42;;
16354;SDS011;8287;51.644;8.494;2023-11-19T14:37:33;15.07;;;4.40;;
16354;SDS011;8287;51.644;8.494;2023-11-19T14:40:02;17.27;;;3.45;;
16354;SDS011;8287;51.644;8.494;2023-11-19T14:42:30;15.35;;;3.55;;
16354;SDS011;8287;51.644;8.494;2023-11-19T14:45:00;14.23;;;3.83;;
16354;SDS011;8287;51.644;8.494;2023-11-19T14:47:26;10.45;;;3.00;;
16354;SDS011;8287;51.644;8.494;2023-11-19T14:49:54;13.55;;;2.55;;
16354;SDS011;8287;51.644;8.494;2023-11-19T14:52:21;13.07;;;2.53;;
16354;SDS011;8287;51.644;8.494;2023-11-19T14:54:47;10.88;;;2.53;;
16354;SDS011;8287;51.644;8.494;2023-11-19T14:57:17;8.90;;;2.80;;
16354;SDS011;8287;51.644;8.494;2023-11-19T14:59:44;15.60;;;2.92;;
16354;SDS011;8287;51.644;8.494;2023-11-19T15:02:11;11.15;;;2.55;;
16354;SDS011;8287;51.644;8.494;2023-11-19T15:04:37;11.70;;;3.08;;